Time;durP1;ratioP1;P1;durP2;ratioP2;P2;SDS_P1;SDS_P2;PMS_P1;PMS_P2;Temp;Humidity;BMP_temperature;BMP_pressure;BME280_temperature;BME280_humidity;BME280_pressure;Samples;Min_cycle;Max_cycle;Signal;HPM_P1;HPM_P2
2023/07/28 05:14:42;;;;;;;;;;;;;;;6.26;100.00;98946.91;5817485;22;19966;-82
2023/07/28 05:17:07;;;;;;;;;;;;;;;6.32;100.00;98951.94;5038575;28;19973;-82
2023/07/28 05:19:32;;;;;;;;;;;;;;;6.38;100.00;98942.94;5023199;28;19957;-82
2023/07/28 05:21:58;;;;;;;;;;;;;;;6.31;100.00;98941.47;5024254;28;19921;-82
2023/07/28 05:24:23;;;;;;;;;;;;;;;6.28;100.00;98944.22;5023962;28;19951;-82
2023/07/28 05:26:48;;;;;;;;;;;;;;;6.29;100.00;98954.69;5022657;28;19921;-83
2023/07/28 05:29:13;;;;;;;;;;;;;;;6.28;100.00;98945.06;5023049;28;19924;-83
2023/07/28 05:31:39;;;;;;;;;;;;;;;6.26;100.00;98946.06;5039721;28;19966;-82
2023/07/28 05:34:04;;;;;;;;;;;;;;;6.30;100.00;98953.78;5022439;28;20360;-82
2023/07/28 05:36:29;;;;;;;;;;;;;;;6.33;100.00;98951.03;5022561;28;20055;-83
2023/07/28 05:38:56;;;;;;;;;;;;;;;6.29;100.00;98945.94;5022934;28;20059;-83
2023/07/28 05:41:21;;;;;;;;;;;;;;;6.34;100.00;98950.09;5019947;28;19928;-83
2023/07/28 05:43:47;;;;;;;;;;;;;;;6.34;100.00;98954.50;5022090;28;19922;-82
2023/07/28 05:46:12;;;;;;;;;;;;;;;6.35;100.00;98951.81;5023725;28;19921;-83
2023/07/28 05:48:37;;;;;;;;;;;;;;;6.40;100.00;98949.00;5024097;28;19998;-83
2023/07/28 05:51:02;;;;;;;;;;;;;;;6.35;100.00;98957.09;5023845;28;19929;-83
2023/07/28 05:53:28;;;;;;;;;;;;;;;6.33;100.00;98964.19;5023361;28;19957;-83
2023/07/28 05:55:53;;;;;;;;;;;;;;;6.40;100.00;98966.56;5023527;28;19924;-83
2023/07/28 05:58:18;;;;;;;;;;;;;;;6.34;100.00;98965.88;5022598;28;19922;-83
2023/07/28 06:00:44;;;;;;;;;;;;;;;6.33;100.00;98966.81;5022198;28;19917;-87
2023/07/28 06:03:12;;;;;;;;;;;;;;;6.27;100.00;98961.78;5021896;28;20433;-83
2023/07/28 06:05:40;;;;;;;;;;;;;;;6.32;100.00;98965.09;5018687;28;19917;-83
2023/07/28 06:08:06;;;;;;;;;;;;;;;6.33;100.00;98973.84;5018865;28;19921;-83
2023/07/28 06:10:32;;;;;;;;;;;;;;;6.34;100.00;98965.03;5021876;28;19917;-82
2023/07/28 06:12:57;;;;;;;;;;;;;;;6.35;100.00;98972.88;5023427;28;19921;-82
2023/07/28 06:15:22;;;;;;;;;;;;;;;6.28;100.00;98971.38;5029166;28;19926;-81
2023/07/28 06:17:48;;;;;;;;;;;;;;;6.32;100.00;98974.78;5023020;28;19997;-83
2023/07/28 06:20:13;;;;;;;;;;;;;;;6.35;100.00;98982.50;5022248;28;20391;-84
2023/07/28 06:22:38;;;;;;;;;;;;;;;6.39;100.00;98975.38;5015964;28;20369;-82
2023/07/28 06:25:04;;;;;;;;;;;;;;;6.36;100.00;98971.09;5021398;28;19921;-82
2023/07/28 06:27:29;;;;;;;;;;;;;;;6.43;100.00;98975.22;5021957;28;19917;-83
2023/07/28 06:29:54;;;;;;;;;;;;;;;6.40;100.00;98987.59;5017631;28;19964;-84
2023/07/28 06:32:23;;;;;;;;;;;;;;;6.39;100.00;98981.50;5020612;28;19917;-83
2023/07/28 06:34:48;;;;;;;;;;;;;;;6.40;100.00;98984.97;5021752;28;19917;-82
2023/07/28 06:37:13;;;;;;;;;;;;;;;6.38;100.00;98978.91;5029746;28;19932;-83
2023/07/28 06:39:39;;;;;;;;;;;;;;;6.40;100.00;98982.34;5021701;28;19917;-84
2023/07/28 06:42:04;;;;;;;;;;;;;;;6.46;100.00;98980.34;5020428;28;19918;-82
2023/07/28 06:44:30;;;;;;;;;;;;;;;6.47;100.00;98987.31;5015328;28;19918;-83
2023/07/28 06:46:55;;;;;;;;;;;;;;;6.43;100.00;98995.38;5021318;28;19921;-83
2023/07/28 06:49:20;;;;;;;;;;;;;;;6.50;100.00;98989.81;5021464;28;20011;-83
2023/07/28 06:51:45;;;;;;;;;;;;;;;6.44;100.00;98987.44;5022765;28;19928;-82
2023/07/28 06:54:12;;;;;;;;;;;;;;;6.44;100.00;98997.09;5022289;28;19918;-82
2023/07/28 07:45:41;;;;;;;;;;;;;;;6.49;100.00;99032.00;5042014;28;19970;-90
2023/07/28 07:48:06;;;;;;;;;;;;;;;6.60;100.00;99035.06;5057497;28;19929;-84
2023/07/28 07:50:32;;;;;;;;;;;;;;;6.49;100.00;99037.25;5041420;28;19918;-83
2023/07/28 07:52:57;;;;;;;;;;;;;;;6.39;100.00;99038.53;5041438;28;19917;-84
2023/07/28 07:55:22;;;;;;;;;;;;;;;6.40;100.00;99042.88;5041685;28;19963;-85
2023/07/28 07:57:48;;;;;;;;;;;;;;;6.40;100.00;99042.88;5038422;28;19927;-85
2023/07/28 08:00:13;;;;;;;;;;;;;;;6.40;100.00;99037.59;5041678;28;20389;-84
2023/07/28 08:02:39;;;;;;;;;;;;;;;6.43;100.00;99034.84;5040576;28;20020;-85
2023/07/28 08:05:04;;;;;;;;;;;;;;;6.47;100.00;99039.09;5041665;28;19924;-84
2023/07/28 08:07:29;;;;;;;;;;;;;;;6.46;100.00;99040.00;5040045;28;20004;-83
2023/07/28 08:09:55;;;;;;;;;;;;;;;6.50;100.00;99049.50;5041818;28;20377;-85
2023/07/28 08:12:20;;;;;;;;;;;;;;;6.49;100.00;99040.78;5047249;28;19921;-86
2023/07/28 08:14:48;;;;;;;;;;;;;;;6.49;100.00;99043.41;5040381;28;19917;-84
2023/07/28 08:17:13;;;;;;;;;;;;;;;6.54;100.00;99041.44;5041598;28;19963;-82
2023/07/28 08:19:39;;;;;;;;;;;;;;;6.44;100.00;99045.31;5041223;28;20442;-85
2023/07/28 08:22:04;;;;;;;;;;;;;;;6.48;100.00;99046.09;5041452;28;19917;-82
2023/07/28 08:24:30;;;;;;;;;;;;;;;6.45;100.00;99039.16;5041831;28;20273;-82
2023/07/28 08:26:56;;;;;;;;;;;;;;;6.53;100.00;99038.88;5041263;28;19935;-83
2023/07/28 08:29:21;;;;;;;;;;;;;;;6.47;100.00;99037.31;5040306;28;19968;-85
2023/07/28 08:31:47;;;;;;;;;;;;;;;6.47;100.00;99037.31;5041816;28;20014;-88
2023/07/28 08:34:12;;;;;;;;;;;;;;;6.51;100.00;99036.31;5040376;28;19921;-82
2023/07/28 08:36:37;;;;;;;;;;;;;;;6.48;100.00;99038.19;5041052;28;19943;-82
2023/07/28 08:39:03;;;;;;;;;;;;;;;6.52;100.00;99043.25;5041087;28;19913;-82
2023/07/28 08:41:28;;;;;;;;;;;;;;;6.52;100.00;99043.25;5041503;28;20429;-82
2023/07/28 08:43:54;;;;;;;;;;;;;;;6.50;100.00;99037.19;5040314;28;20276;-83
2023/07/28 08:46:19;;;;;;;;;;;;;;;6.45;100.00;99035.69;5043279;28;19939;-84
2023/07/28 08:48:45;;;;;;;;;;;;;;;6.50;100.00;99033.72;5044421;28;19920;-81
2023/07/28 08:51:11;;;;;;;;;;;;;;;6.52;100.00;99037.16;5043721;28;19923;-83
2023/07/28 08:53:37;;;;;;;;;;;;;;;6.48;100.00;99040.81;5044353;28;20280;-82
2023/07/28 08:56:03;;;;;;;;;;;;;;;6.55;100.00;99042.28;5042994;28;19921;-81
2023/07/28 08:58:29;;;;;;;;;;;;;;;6.50;100.00;99052.16;5041738;28;19947;-85
2023/07/28 09:00:54;;;;;;;;;;;;;;;6.51;100.00;99045.94;5043427;28;19923;-84
2023/07/28 09:03:21;;;;;;;;;;;;;;;6.48;100.00;99043.47;5043124;28;19917;-83
2023/07/28 09:05:46;;;;;;;;;;;;;;;6.49;100.00;99047.78;5042993;28;19944;-84
2023/07/28 09:08:12;;;;;;;;;;;;;;;6.54;100.00;99048.47;5044794;28;20381;-82
2023/07/28 09:10:45;;;;;;;;;;;;;;;6.52;100.00;99043.25;5044206;28;19918;-81
2023/07/28 09:13:12;;;;;;;;;;;;;;;6.53;100.00;99054.66;5041832;28;19924;-81
2023/07/28 09:15:37;;;;;;;;;;;;;;;6.58;100.00;99057.13;5044313;28;19928;-82
2023/07/28 09:18:03;;;;;;;;;;;;;;;6.50;100.00;99049.50;5043814;28;20253;-82
2023/07/28 09:20:34;;;;;;;;;;;;;;;6.57;100.00;99058.88;5042752;28;19943;-82
2023/07/28 09:22:59;;;;;;;;;;;;;;;6.49;100.00;99056.56;5044028;28;20363;-85
2023/07/28 09:25:27;;;;;;;;;;;;;;;6.60;100.00;99061.41;5042512;28;20011;-83
2023/07/28 09:27:53;;;;;;;;;;;;;;;6.60;100.00;99065.81;5041563;28;19925;-85
2023/07/28 09:30:19;;;;;;;;;;;;;;;6.56;100.00;99065.09;5044153;28;19917;-83
2023/07/28 09:32:49;;;;;;;;;;;;;;;6.59;100.00;99074.63;5042336;28;19929;-84
2023/07/28 09:35:14;;;;;;;;;;;;;;;6.58;100.00;99073.75;5042888;28;19916;-85
2023/07/28 09:37:41;;;;;;;;;;;;;;;6.53;100.00;99076.56;5043568;28;19951;-85
2023/07/28 09:40:11;;;;;;;;;;;;;;;6.55;100.00;99077.38;5043741;28;20504;-84
2023/07/28 09:42:37;;;;;;;;;;;;;;;6.64;100.00;99072.69;5041830;28;20012;-84
2023/07/28 09:45:02;;;;;;;;;;;;;;;6.57;100.00;99071.19;5042753;28;20019;-84
2023/07/28 09:47:30;;;;;;;;;;;;;;;6.55;100.00;99065.97;5042703;28;20027;-84
2023/07/28 09:49:58;;;;;;;;;;;;;;;6.55;100.00;99079.16;5042475;28;19917;-84
2023/07/28 09:52:24;;;;;;;;;;;;;;;6.58;100.00;99079.03;5054474;28;20272;-84
2023/07/28 09:54:53;;;;;;;;;;;;;;;6.55;100.00;99079.16;5043415;28;19921;-83
2023/07/28 09:57:19;;;;;;;;;;;;;;;6.52;100.00;99084.53;5041959;28;19952;-84
2023/07/28 09:59:46;;;;;;;;;;;;;;;6.52;100.00;99085.38;5041017;28;19992;-84
2023/07/28 10:02:14;;;;;;;;;;;;;;;6.54;100.00;99082.69;5042489;28;19925;-84
2023/07/28 10:04:40;;;;;;;;;;;;;;;6.52;100.00;99085.38;5043570;28;20016;-83
2023/07/28 10:07:07;;;;;;;;;;;;;;;6.54;100.00;99082.69;5042005;28;20008;-83
2023/07/28 10:09:37;;;;;;;;;;;;;;;6.52;100.00;99084.53;5042023;28;20372;-83
2023/07/28 10:12:03;;;;;;;;;;;;;;;6.55;100.00;99084.41;5043115;28;19917;-86
2023/07/28 10:14:30;;;;;;;;;;;;;;;6.51;100.00;99088.06;5041934;28;19920;-86
2023/07/28 10:16:59;;;;;;;;;;;;;;;6.49;100.00;99085.50;5041434;28;19917;-86
2023/07/28 10:19:26;;;;;;;;;;;;;;;6.49;100.00;99090.78;5041937;28;19970;-87
2023/07/28 10:21:58;;;;;;;;;;;;;;;6.52;100.00;99092.41;5041539;28;19960;-83
2023/07/28 10:24:43;;;;;;;;;;;;;;;6.51;100.00;99091.56;5042897;28;19971;-83
2023/07/28 10:27:09;;;;;;;;;;;;;;;6.54;100.00;99094.09;5041818;28;19920;-83
2023/07/28 10:29:37;;;;;;;;;;;;;;;6.51;100.00;99093.31;5042757;28;19924;-84
2023/07/28 10:32:02;;;;;;;;;;;;;;;6.55;100.00;99089.69;5058141;28;20439;-83
2023/07/28 10:34:28;;;;;;;;;;;;;;;6.58;100.00;99091.34;5042414;28;19917;-84
2023/07/28 10:36:58;;;;;;;;;;;;;;;6.62;100.00;99095.56;5042438;28;20310;-84
2023/07/28 10:39:24;;;;;;;;;;;;;;;6.55;100.00;99094.94;5042800;28;19923;-83
2023/07/28 10:42:06;;;;;;;;;;;;;;;6.60;100.00;99098.25;5040932;28;19920;-82
2023/07/28 10:44:35;;;;;;;;;;;;;;;6.55;100.00;99094.94;5039778;28;19925;-84
2023/07/28 10:47:01;;;;;;;;;;;;;;;6.59;100.00;99093.03;5057076;28;19927;-84
2023/07/28 10:49:26;;;;;;;;;;;;;;;6.60;100.00;99095.63;5042504;28;20050;-83
2023/07/28 10:51:52;;;;;;;;;;;;;;;6.57;100.00;99093.09;5041328;28;20011;-83
2023/07/28 10:54:20;;;;;;;;;;;;;;;6.57;100.00;99098.38;5042469;28;19923;-83
2023/07/28 10:56:45;;;;;;;;;;;;;;;6.58;100.00;99099.25;5042450;28;19959;-83
2023/07/28 10:59:21;;;;;;;;;;;;;;;6.59;100.00;99099.19;5041333;28;19925;-83
2023/07/28 11:01:47;;;;;;;;;;;;;;;6.64;100.00;99106.91;5042150;28;19917;-82
2023/07/28 11:04:13;;;;;;;;;;;;;;;6.60;100.00;99098.25;5042201;28;20268;-83
2023/07/28 11:06:40;;;;;;;;;;;;;;;6.52;100.00;99106.44;5041933;28;19924;-82
2023/07/28 11:09:06;;;;;;;;;;;;;;;6.53;100.00;99096.78;5042400;28;20278;-83
2023/07/28 11:11:31;;;;;;;;;;;;;;;6.49;100.00;99095.16;5041917;28;20169;-84
2023/07/28 11:13:58;;;;;;;;;;;;;;;6.50;100.00;99091.63;5040561;28;19920;-82
2023/07/28 11:16:23;;;;;;;;;;;;;;;6.52;100.00;99088.00;5042631;28;20372;-84
2023/07/28 11:18:48;;;;;;;;;;;;;;;6.52;100.00;99089.78;5040917;28;20000;-84
2023/07/28 11:21:16;;;;;;;;;;;;;;;6.54;100.00;99087.94;5042069;28;19967;-83
2023/07/28 11:23:44;;;;;;;;;;;;;;;6.53;100.00;99086.25;5041731;28;19956;-83
2023/07/28 11:26:11;;;;;;;;;;;;;;;6.58;100.00;99089.56;5040714;28;19967;-90
2023/07/28 11:28:37;;;;;;;;;;;;;;;6.58;100.00;99083.44;5040920;28;19931;-84
2023/07/28 11:31:03;;;;;;;;;;;;;;;6.64;100.00;99085.84;5055485;28;19968;-83
2023/07/28 11:33:28;;;;;;;;;;;;;;;6.61;100.00;99078.91;5041974;28;19995;-83
2023/07/28 11:35:54;;;;;;;;;;;;;;;6.57;100.00;99082.56;5042088;28;19996;-83
2023/07/28 11:38:20;;;;;;;;;;;;;;;6.68;100.00;99083.03;5041887;28;20372;-84
2023/07/28 11:40:45;;;;;;;;;;;;;;;6.65;100.00;99090.19;5041519;28;19928;-84
2023/07/28 11:43:10;;;;;;;;;;;;;;;6.64;100.00;99086.69;5040570;28;19924;-84
2023/07/28 11:45:36;;;;;;;;;;;;;;;6.63;100.00;99090.25;5041838;28;19927;-85
2023/07/28 11:48:05;;;;;;;;;;;;;;;6.65;100.00;99096.31;5041444;28;19967;-84
2023/07/28 11:50:38;;;;;;;;;;;;;;;6.60;100.00;99085.09;5041544;28;19959;-82
2023/07/28 11:53:04;;;;;;;;;;;;;;;6.60;100.00;99092.97;5040587;28;19928;-83
2023/07/28 11:55:29;;;;;;;;;;;;;;;6.65;100.00;99083.16;5040221;28;20007;-84
2023/07/28 11:57:55;;;;;;;;;;;;;;;6.61;100.00;99088.59;5040852;28;20361;-88
2023/07/28 12:00:36;;;;;;;;;;;;;;;6.58;100.00;99086.09;5041755;28;20322;-82
2023/07/28 12:03:04;;;;;;;;;;;;;;;6.62;100.00;99082.41;5041496;28;19925;-83
2023/07/28 12:05:30;;;;;;;;;;;;;;;6.66;100.00;99086.66;5041290;28;20443;-84
2023/07/28 12:07:55;;;;;;;;;;;;;;;6.61;100.00;99084.19;5041699;28;20004;-83
2023/07/28 12:10:20;;;;;;;;;;;;;;;6.65;100.00;99091.06;5041356;28;19918;-82
2023/07/28 12:12:46;;;;;;;;;;;;;;;6.61;100.00;99085.97;5040237;28;19931;-87
2023/07/28 12:15:20;;;;;;;;;;;;;;;6.60;100.00;99087.72;5041409;28;19987;-83
2023/07/28 12:18:05;;;;;;;;;;;;;;;6.59;100.00;99085.16;5040364;28;20360;-83
2023/07/28 12:20:35;;;;;;;;;;;;;;;6.62;100.00;99087.66;5044308;28;20011;-83
2023/07/28 12:23:00;;;;;;;;;;;;;;;6.65;100.00;99080.53;5045373;28;19921;-84
2023/07/28 12:25:26;;;;;;;;;;;;;;;6.64;100.00;99091.13;5043978;28;19913;-84
2023/07/28 12:27:51;;;;;;;;;;;;;;;6.68;100.00;99090.91;5043499;28;19921;-83
2023/07/28 12:30:17;;;;;;;;;;;;;;;6.70;100.00;99082.97;5045510;28;20269;-83
2023/07/28 12:32:43;;;;;;;;;;;;;;;6.71;100.00;99087.31;5044170;28;20407;-84
2023/07/28 12:35:08;;;;;;;;;;;;;;;6.74;100.00;99087.22;5052556;28;20019;-84
2023/07/28 12:37:34;;;;;;;;;;;;;;;6.80;100.00;99088.75;5044905;28;19960;-84
2023/07/28 12:39:59;;;;;;;;;;;;;;;6.75;100.00;99095.94;5044770;28;20376;-85
2023/07/28 12:42:24;;;;;;;;;;;;;;;6.72;100.00;99091.69;5049770;28;20084;-83
2023/07/28 12:44:50;;;;;;;;;;;;;;;6.71;100.00;99092.59;5043271;28;20044;-87
2023/07/28 12:47:15;;;;;;;;;;;;;;;6.75;100.00;99093.31;5043786;28;19924;-84
2023/07/28 12:49:40;;;;;;;;;;;;;;;6.79;100.00;99097.56;5044803;28;19987;-83
2023/07/28 12:52:09;;;;;;;;;;;;;;;6.78;100.00;99101.09;5044496;28;19925;-82
2023/07/28 12:54:34;;;;;;;;;;;;;;;6.74;100.00;99103.00;5043254;28;19917;-83
2023/07/28 12:56:59;;;;;;;;;;;;;;;6.75;100.00;99102.09;5044219;28;19927;-83
2023/07/28 12:59:25;;;;;;;;;;;;;;;6.69;100.00;99111.06;5043427;28;19928;-85
2023/07/28 13:01:50;;;;;;;;;;;;;;;6.70;100.00;99099.63;5044829;28;20462;-84
2023/07/28 13:04:15;;;;;;;;;;;;;;;6.70;100.00;99109.28;5043035;28;20413;-83
2023/07/28 13:06:41;;;;;;;;;;;;;;;6.73;100.00;99103.91;5044160;28;19917;-84
2023/07/28 13:09:07;;;;;;;;;;;;;;;6.72;100.00;99105.69;5043063;28;19917;-83
2023/07/28 13:11:33;;;;;;;;;;;;;;;6.75;100.00;99101.22;5043869;28;19916;-84
2023/07/28 13:13:58;;;;;;;;;;;;;;;6.66;100.00;99108.56;5042695;28;19940;-83
2023/07/28 13:16:23;;;;;;;;;;;;;;;6.67;100.00;99104.13;5043952;28;19917;-83
2023/07/28 13:18:49;;;;;;;;;;;;;;;6.68;100.00;99104.09;5044318;28;19924;-83
2023/07/28 13:21:14;;;;;;;;;;;;;;;6.73;100.00;99104.78;5043940;28;19921;-84
2023/07/28 13:23:39;;;;;;;;;;;;;;;6.77;100.00;99110.78;5043682;28;19924;-84
2023/07/28 13:26:05;;;;;;;;;;;;;;;6.76;100.00;99113.47;5047762;28;19924;-89
2023/07/28 13:28:30;;;;;;;;;;;;;;;6.74;100.00;99113.53;5042632;28;19917;-84
2023/07/28 13:30:55;;;;;;;;;;;;;;;6.75;100.00;99111.75;5043320;28;19916;-84
2023/07/28 13:33:21;;;;;;;;;;;;;;;6.69;100.00;99118.97;5044177;28;19917;-83
2023/07/28 13:35:46;;;;;;;;;;;;;;;6.71;100.00;99117.13;5043643;28;19924;-85
2023/07/28 13:38:11;;;;;;;;;;;;;;;6.72;100.00;99112.75;5043310;28;19925;-84
2023/07/28 13:40:37;;;;;;;;;;;;;;;6.79;100.00;99116.84;5042552;28;20431;-84
2023/07/28 13:43:02;;;;;;;;;;;;;;;6.80;100.00;99125.63;5041362;28;19921;-84
2023/07/28 13:45:28;;;;;;;;;;;;;;;6.73;100.00;99115.31;5043386;28;19944;-84
2023/07/28 13:47:54;;;;;;;;;;;;;;;6.76;100.00;99114.31;5042175;28;19928;-84
2023/07/28 13:50:19;;;;;;;;;;;;;;;6.82;100.00;99113.25;5042020;28;19970;-83
2023/07/28 13:52:44;;;;;;;;;;;;;;;6.87;100.00;99124.47;5043823;28;19921;-84
2023/07/28 13:55:09;;;;;;;;;;;;;;;6.80;100.00;99118.56;5041910;28;19917;-84
2023/07/28 13:57:35;;;;;;;;;;;;;;;6.72;100.00;99124.13;5042458;28;19921;-84
2023/07/28 14:00:00;;;;;;;;;;;;;;;6.84;100.00;99121.94;5058509;28;20007;-83
2023/07/28 14:02:26;;;;;;;;;;;;;;;6.86;100.00;99125.38;5043410;28;19921;-84
2023/07/28 14:04:51;;;;;;;;;;;;;;;6.86;100.00;99126.25;5042941;28;20151;-83
2023/07/28 14:07:16;;;;;;;;;;;;;;;6.88;100.00;99113.88;5042896;28;20031;-83
2023/07/28 14:09:41;;;;;;;;;;;;;;;6.86;100.00;99122.72;5043906;28;19978;-84
2023/07/28 14:12:07;;;;;;;;;;;;;;;6.87;100.00;99116.56;5041423;28;19921;-84
2023/07/28 14:14:32;;;;;;;;;;;;;;;6.87;100.00;99111.28;5042289;28;20299;-84
2023/07/28 14:16:57;;;;;;;;;;;;;;;9.94;100.00;99101.19;5042640;28;19921;-83
2023/07/28 14:19:23;;;;;;;;;;;;;;;7.84;100.00;99104.75;5042920;28;19916;-85
2023/07/28 14:21:48;;;;;;;;;;;;;;;7.41;100.00;99107.38;5050058;28;20387;-85
2023/07/28 14:24:14;;;;;;;;;;;;;;;9.82;100.00;99109.72;5042471;28;19965;-84
2023/07/28 14:26:39;;;;;;;;;;;;;;;8.14;100.00;99113.13;5042661;28;20015;-85
2023/07/28 14:29:05;;;;;;;;;;;;;;;7.78;100.00;99116.41;5032181;28;19978;-84
2023/07/28 14:31:30;;;;;;;;;;;;;;;7.62;100.00;99105.63;5042654;28;19976;-83
2023/07/28 14:33:55;;;;;;;;;;;;;;;7.59;100.00;99111.03;5042764;28;20372;-84
2023/07/28 14:36:20;;;;;;;;;;;;;;;7.41;100.00;99107.38;5042555;28;19917;-83
2023/07/28 14:38:46;;;;;;;;;;;;;;;7.37;100.00;99103.19;5042113;28;20428;-85
2023/07/28 14:41:11;;;;;;;;;;;;;;;7.42;100.00;99101.22;5041698;28;19920;-85
2023/07/28 14:43:36;;;;;;;;;;;;;;;7.46;100.00;99104.56;5040860;28;19928;-83
2023/07/28 14:46:01;;;;;;;;;;;;;;;7.43;100.00;99100.25;5042554;28;19980;-84
2023/07/28 14:48:27;;;;;;;;;;;;;;;7.42;100.00;99103.84;5042246;28;20399;-83
2023/07/28 14:50:52;;;;;;;;;;;;;;;7.26;100.00;99100.13;5042289;28;19988;-83
2023/07/28 14:53:29;;;;;;;;;;;;;;;7.27;100.00;99104.44;5043012;28;20395;-83
2023/07/28 14:55:55;;;;;;;;;;;;;;;7.23;100.00;99108.16;5042790;28;19996;-83
2023/07/28 14:58:20;;;;;;;;;;;;;;;7.23;100.00;99105.50;5039567;28;20055;-86
2023/07/28 15:00:46;;;;;;;;;;;;;;;7.24;100.00;99109.84;5036255;28;20287;-83
2023/07/28 15:03:11;;;;;;;;;;;;;;;7.38;100.00;99107.50;5042149;28;19928;-88
2023/07/28 15:05:36;;;;;;;;;;;;;;;7.33;100.00;99104.22;5042437;28;19917;-84
2023/07/28 15:08:01;;;;;;;;;;;;;;;7.30;100.00;99108.75;5040984;28;19925;-85
2023/07/28 15:10:27;;;;;;;;;;;;;;;7.32;100.00;99106.91;5056935;28;19973;-86
2023/07/28 15:12:52;;;;;;;;;;;;;;;7.30;100.00;99108.75;5041351;28;19955;-83
2023/07/28 15:15:17;;;;;;;;;;;;;;;7.31;100.00;99100.78;5040465;28;19917;-84
2023/07/28 15:17:42;;;;;;;;;;;;;;;7.31;100.00;99095.50;5040835;28;20007;-82
2023/07/28 15:20:08;;;;;;;;;;;;;;;7.26;100.00;99095.69;5041988;28;19959;-85
2023/07/28 15:22:33;;;;;;;;;;;;;;;7.27;100.00;99097.44;5040665;28;19928;-86
2023/07/28 15:24:58;;;;;;;;;;;;;;;7.22;100.00;99095.88;5039614;28;20335;-84
2023/07/28 15:27:24;;;;;;;;;;;;;;;7.28;100.00;99095.63;5039114;28;20206;-88
2023/07/28 15:29:49;;;;;;;;;;;;;;;7.24;100.00;99094.03;5034569;28;19963;-86
2023/07/28 15:32:14;;;;;;;;;;;;;;;7.25;100.00;99090.50;5041520;28;19928;-84
2023/07/28 15:34:39;;;;;;;;;;;;;;;7.21;100.00;99099.44;5042059;28;19917;-85
2023/07/28 15:37:04;;;;;;;;;;;;;;;7.19;100.00;99099.47;5036227;28;20414;-84
2023/07/28 15:39:30;;;;;;;;;;;;;;;7.22;100.00;99090.59;5040349;28;19921;-84
2023/07/28 15:41:55;;;;;;;;;;;;;;;7.21;100.00;99099.44;5040276;28;19921;-83
2023/07/28 15:44:21;;;;;;;;;;;;;;;7.17;100.00;99092.59;5040673;28;20482;-85
2023/07/28 15:46:46;;;;;;;;;;;;;;;7.21;100.00;99089.75;5039995;28;19917;-83
2023/07/28 15:49:11;;;;;;;;;;;;;;;7.17;100.00;99095.22;5057649;28;20306;-92
2023/07/28 15:51:37;;;;;;;;;;;;;;;7.21;100.00;99100.31;5040568;28;19917;-82
2023/07/28 15:54:02;;;;;;;;;;;;;;;7.13;100.00;99096.25;5042773;28;20387;-85
2023/07/28 15:56:27;;;;;;;;;;;;;;;7.18;100.00;99091.63;5045488;28;20376;-86
2023/07/28 15:58:53;;;;;;;;;;;;;;;7.28;100.00;99100.91;5042626;28;19920;-85
2023/07/28 16:01:18;;;;;;;;;;;;;;;7.26;100.00;99092.22;5043989;28;19921;-85
2023/07/28 16:03:43;;;;;;;;;;;;;;;7.19;100.00;99107.38;5044595;28;20614;-86
2023/07/28 16:06:09;;;;;;;;;;;;;;;7.15;100.00;99105.81;5044135;28;19913;-83
2023/07/28 16:08:35;;;;;;;;;;;;;;;7.15;100.00;99107.56;5045229;28;19925;-84
2023/07/28 16:11:00;;;;;;;;;;;;;;;7.15;100.00;99103.19;5044283;28;19947;-85
2023/07/28 16:13:26;;;;;;;;;;;;;;;7.14;100.00;99095.34;5044473;28;19928;-82
2023/07/28 16:15:52;;;;;;;;;;;;;;;7.09;100.00;99100.78;5052234;28;20015;-89
2023/07/28 16:18:17;;;;;;;;;;;;;;;7.21;100.00;99099.44;5044057;28;19960;-94
2023/07/28 16:20:42;;;;;;;;;;;;;;;7.29;100.00;99097.34;5046105;28;20486;-87
2023/07/28 16:23:07;;;;;;;;;;;;;;;7.19;100.00;99093.38;5045224;28;19974;-87
2023/07/28 16:25:33;;;;;;;;;;;;;;;7.17;100.00;99089.94;5043796;28;19987;-85
2023/07/28 16:28:22;;;;;;;;;;;;;;;7.24;100.00;99094.03;5042187;28;19927;-84
2023/07/28 16:30:47;;;;;;;;;;;;;;;7.22;100.00;99088.81;5044383;28;20253;-84
2023/07/28 16:33:12;;;;;;;;;;;;;;;7.22;100.00;99093.25;5045244;28;19917;-85
2023/07/28 16:35:38;;;;;;;;;;;;;;;7.24;100.00;99088.75;5045012;28;20349;-86
2023/07/28 16:38:03;;;;;;;;;;;;;;;7.26;100.00;99086.94;5044641;28;20422;-84
2023/07/28 16:40:29;;;;;;;;;;;;;;;7.17;100.00;99082.88;5044586;28;19935;-84
2023/07/28 16:42:54;;;;;;;;;;;;;;;7.25;100.00;99086.06;5042691;28;19917;-84
2023/07/28 16:45:20;;;;;;;;;;;;;;;7.27;100.00;99088.66;5044327;28;19925;-82
2023/07/28 16:47:45;;;;;;;;;;;;;;;7.28;100.00;99085.94;5043203;28;20399;-85
2023/07/28 16:50:10;;;;;;;;;;;;;;;7.28;100.00;99085.09;5043623;28;19920;-85
2023/07/28 16:52:35;;;;;;;;;;;;;;;7.19;100.00;99090.72;5043417;28;20004;-84
2023/07/28 16:55:01;;;;;;;;;;;;;;;7.17;100.00;99093.44;5040739;28;19966;-85
2023/07/28 16:57:26;;;;;;;;;;;;;;;7.20;100.00;99092.47;5041090;28;19921;-83
2023/07/28 16:59:51;;;;;;;;;;;;;;;7.19;100.00;99091.56;5043260;28;20295;-86
2023/07/28 17:02:17;;;;;;;;;;;;;;;7.09;100.00;99090.25;5043436;28;19931;-84
2023/07/28 17:04:42;;;;;;;;;;;;;;;7.13;100.00;99090.97;5042791;28;19921;-86
2023/07/28 17:07:07;;;;;;;;;;;;;;;7.14;100.00;99087.44;5036837;28;19975;-85
2023/07/28 17:09:32;;;;;;;;;;;;;;;7.12;100.00;99089.28;5041155;28;19932;-86
2023/07/28 17:11:58;;;;;;;;;;;;;;;7.11;100.00;99087.56;5042673;28;19927;-84
2023/07/28 17:14:23;;;;;;;;;;;;;;;7.02;100.00;99097.53;5054237;28;19936;-85
2023/07/28 17:16:51;;;;;;;;;;;;;;;7.14;100.00;99095.34;5039487;28;19924;-86
2023/07/28 17:19:17;;;;;;;;;;;;;;;7.09;100.00;99098.16;5043204;28;19953;-88
2023/07/28 17:21:42;;;;;;;;;;;;;;;7.08;100.00;99094.66;5042643;28;19979;-87
2023/07/28 17:24:07;;;;;;;;;;;;;;;7.06;100.00;99091.22;5036756;28;19939;-92
2023/07/28 17:26:33;;;;;;;;;;;;;;;7.20;100.00;99092.47;5037808;28;19924;-91
2023/07/28 17:28:58;;;;;;;;;;;;;;;7.13;100.00;99097.09;5042884;28;20379;-85
2023/07/28 17:31:23;;;;;;;;;;;;;;;7.12;100.00;99091.91;5043858;28;19956;-84
2023/07/28 17:33:49;;;;;;;;;;;;;;;7.07;100.00;99098.22;5040482;28;20003;-83
2023/07/28 17:36:14;;;;;;;;;;;;;;;7.12;100.00;99099.81;5044214;28;19956;-83
2023/07/28 17:38:40;;;;;;;;;;;;;;;7.10;100.00;99118.31;5043545;28;19924;-81
2023/07/28 17:41:05;;;;;;;;;;;;;;;7.10;100.00;99118.31;5042507;28;19971;-82
2023/07/28 17:43:30;;;;;;;;;;;;;;;7.15;100.00;99118.09;5039397;28;19924;-82
2023/07/28 17:45:55;;;;;;;;;;;;;;;7.08;100.00;99115.75;5038053;28;19917;-84
2023/07/28 17:48:21;;;;;;;;;;;;;;;7.09;100.00;99117.44;5040496;28;20007;-89
2023/07/28 17:50:46;;;;;;;;;;;;;;;7.16;100.00;99119.84;5042623;28;20374;-85
2023/07/28 17:53:11;;;;;;;;;;;;;;;8.29;100.00;99118.66;5041455;28;20335;-83
2023/07/28 17:55:36;;;;;;;;;;;;;;;14.85;100.00;99109.53;5037150;28;20311;-84
2023/07/28 17:58:01;;;;;;;;;;;;;;;16.11;100.00;99099.38;5037799;28;19928;-86
2023/07/28 18:00:27;;;;;;;;;;;;;;;15.14;100.00;99095.91;5040024;28;19921;-93
2023/07/28 18:03:02;;;;;;;;;;;;;;;11.52;100.00;99111.25;5042860;28;19924;-94
2023/07/28 18:05:28;;;;;;;;;;;;;;;10.26;100.00;99113.66;5041648;28;19917;-85
2023/07/28 18:07:53;;;;;;;;;;;;;;;9.74;100.00;99125.97;5043003;28;19928;-86
2023/07/28 18:10:18;;;;;;;;;;;;;;;9.46;100.00;99131.78;5057304;28;19943;-86
2023/07/28 18:12:44;;;;;;;;;;;;;;;9.31;100.00;99116.66;5040092;28;19925;-92
2023/07/28 18:15:10;;;;;;;;;;;;;;;9.16;100.00;99123.53;5044065;28;19922;-85
2023/07/28 18:17:35;;;;;;;;;;;;;;;9.08;100.00;99130.03;5043978;28;19928;-87
2023/07/28 18:20:00;;;;;;;;;;;;;;;9.04;100.00;99130.25;5034741;28;19929;-85
2023/07/28 18:22:25;;;;;;;;;;;;;;;8.94;100.00;99123.72;5038603;28;20424;-85
2023/07/28 18:24:51;;;;;;;;;;;;;;;8.93;100.00;99127.25;5034741;28;20407;-86
2023/07/28 18:27:16;;;;;;;;;;;;;;;8.86;100.00;99126.69;5052659;28;19920;-86
2023/07/28 18:29:42;;;;;;;;;;;;;;;8.89;100.00;99123.91;5053210;28;20003;-88
2023/07/28 18:32:08;;;;;;;;;;;;;;;8.90;100.00;99117.69;5035509;28;19927;-87
2023/07/28 18:34:39;;;;;;;;;;;;;;;8.84;100.00;99118.84;5038817;28;19921;-93
2023/07/28 18:37:07;;;;;;;;;;;;;;;8.84;100.00;99118.84;5037023;28;19920;-92
2023/07/28 18:39:33;;;;;;;;;;;;;;;8.80;100.00;99130.47;5054833;28;20268;-86
2023/07/28 18:41:59;;;;;;;;;;;;;;;8.84;100.00;99137.34;5042151;28;20011;-86